Brush Prairie, Washington
Current Conditions -  °F | °C
As of 4:53 AM on Friday 31 Oct 2014 (Local Time) from KVUO Reporting Station
Light Rain Light Rain  
Wind Chill: 53°   Ceiling: 800
Heat Index: 53°   Visibility: 4mi
Dew Point: 52°   Wind: 5mph
Humidity: 96%   Direction: 330°NNW
Pressure: 29.68"   Gusts: NA
Location:  45.73°N, 122.55°W
Report Text: KVUO 311153Z AUTO 33004KT 4SM -RA BR OVC008 12/11 A2968 RMK AO2 CIG 006V010 SLP050 P0006 60078 70132 T01170111 10133 20117 56017
Loading
Personal Weather Stations






























Interactive Weather Map
Tropical Storm Tracking
New forecast layout! Learn more

10-Day Weather Forecast

Advertisements
Track Severe Weather on mobile